createdAt,value
2022-12-27T00:00:59.485Z,101242.00
2022-12-27T00:03:26.102Z,101245.00
2022-12-27T00:05:52.831Z,101239.00
2022-12-27T00:08:19.469Z,101250.00
2022-12-27T00:10:46.295Z,101248.00
2022-12-27T00:13:12.888Z,101263.00
2022-12-27T00:15:40.837Z,101272.00
2022-12-27T00:18:07.363Z,101273.00
2022-12-27T00:20:34.059Z,101286.00
2022-12-27T00:23:03.651Z,101284.00
2022-12-27T00:25:30.148Z,101280.00
2022-12-27T00:27:57.165Z,101278.00
2022-12-27T00:30:25.181Z,101288.00
2022-12-27T00:32:51.744Z,101281.00
2022-12-27T00:35:18.399Z,101289.00
2022-12-27T00:37:44.928Z,101276.00
2022-12-27T00:40:11.996Z,101286.00
2022-12-27T00:42:38.507Z,101286.00
2022-12-27T00:45:05.849Z,101290.00
2022-12-27T00:47:32.307Z,101284.00
2022-12-27T00:49:58.799Z,101289.00
2022-12-27T00:52:25.384Z,101292.00
2022-12-27T00:54:51.951Z,101303.00
2022-12-27T00:57:18.877Z,101304.00
2022-12-27T00:59:46.865Z,101305.00
2022-12-27T01:02:13.861Z,101304.00
2022-12-27T01:04:40.489Z,101312.00
2022-12-27T01:07:06.998Z,101313.00
2022-12-27T01:09:33.480Z,101321.00
2022-12-27T01:12:00.183Z,101321.00
2022-12-27T01:14:26.692Z,101326.00
2022-12-27T01:16:53.408Z,101320.00
2022-12-27T01:19:20.391Z,101329.00
2022-12-27T01:21:46.978Z,101323.00
2022-12-27T01:24:16.459Z,101340.00
2022-12-27T01:26:43.524Z,101338.00
2022-12-27T01:29:12.596Z,101344.00
2022-12-27T01:31:39.305Z,101345.00
2022-12-27T01:34:05.931Z,101352.00
2022-12-27T01:36:32.708Z,101365.00
2022-12-27T01:39:00.262Z,101363.00
2022-12-27T01:41:53.357Z,101361.00
2022-12-27T01:44:49.232Z,101364.00
2022-12-27T01:47:22.295Z,101361.00
2022-12-27T01:50:01.729Z,101364.00
2022-12-27T01:52:35.471Z,101364.00
2022-12-27T01:55:11.127Z,101359.00
2022-12-27T01:57:38.167Z,101369.00
2022-12-27T02:00:06.214Z,101373.00
2022-12-27T02:02:33.149Z,101369.00
2022-12-27T02:05:00.043Z,101370.00
2022-12-27T02:07:35.477Z,101373.00
2022-12-27T02:10:03.336Z,101378.00
2022-12-27T02:12:30.138Z,101374.00
2022-12-27T02:14:56.875Z,101372.00
2022-12-27T02:17:27.008Z,101381.00
2022-12-27T02:20:12.754Z,101374.00
2022-12-27T02:23:39.358Z,101391.00
2022-12-27T02:26:33.908Z,101391.00
2022-12-27T02:29:13.830Z,101399.00
2022-12-27T02:31:57.650Z,101399.00
2022-12-27T02:34:57.383Z,101401.00
2022-12-27T02:37:28.239Z,101404.00
2022-12-27T02:39:57.245Z,101399.00
2022-12-27T02:42:42.744Z,101402.00
2022-12-27T02:45:38.279Z,101414.00
2022-12-27T02:48:28.668Z,101406.00
2022-12-27T02:51:26.847Z,101410.00
2022-12-27T02:54:08.975Z,101424.00
2022-12-27T02:57:07.037Z,101419.00
2022-12-27T03:00:07.653Z,101426.00
2022-12-27T03:03:06.744Z,101423.00
2022-12-27T03:06:15.277Z,101429.00
2022-12-27T03:08:56.476Z,101428.00
2022-12-27T03:11:45.126Z,101431.00
2022-12-27T03:14:42.465Z,101439.00
2022-12-27T03:17:14.849Z,101441.00
2022-12-27T03:20:08.585Z,101443.00
2022-12-27T03:22:55.834Z,101449.00
2022-12-27T03:25:29.437Z,101442.00
2022-12-27T03:28:21.083Z,101438.00
2022-12-27T03:31:10.686Z,101453.00
2022-12-27T03:33:38.271Z,101448.00
2022-12-27T03:36:37.057Z,101451.00
2022-12-27T03:39:07.021Z,101445.00
2022-12-27T03:41:59.366Z,101444.00
2022-12-27T03:44:27.028Z,101456.00
2022-12-27T03:47:20.619Z,101458.00
2022-12-27T03:50:13.656Z,101461.00
2022-12-27T03:52:49.186Z,101453.00
2022-12-27T03:55:17.656Z,101455.00
2022-12-27T03:57:44.260Z,101456.00
2022-12-27T04:00:11.486Z,101454.00
2022-12-27T04:02:39.184Z,101456.00
2022-12-27T04:05:06.380Z,101461.00
2022-12-27T04:07:33.215Z,101448.00
2022-12-27T04:10:18.323Z,101445.00
2022-12-27T04:13:03.699Z,101462.00
2022-12-27T04:15:48.931Z,101462.00
2022-12-27T04:18:34.228Z,101458.00
2022-12-27T04:21:19.392Z,101450.00
2022-12-27T04:24:04.390Z,101451.00
2022-12-27T04:26:49.362Z,101452.00
2022-12-27T04:29:34.491Z,101458.00
2022-12-27T04:32:19.604Z,101456.00
2022-12-27T04:34:46.099Z,101450.00
2022-12-27T04:37:16.854Z,101452.00
2022-12-27T04:40:14.252Z,101442.00
2022-12-27T04:43:00.737Z,101450.00
2022-12-27T04:45:45.807Z,101457.00
2022-12-27T04:48:32.473Z,101459.00
2022-12-27T04:51:18.634Z,101462.00
2022-12-27T04:54:04.740Z,101468.00
2022-12-27T04:56:31.436Z,101471.00
2022-12-27T04:59:16.477Z,101457.00
2022-12-27T05:02:01.968Z,101460.00
2022-12-27T05:04:31.110Z,101473.00
2022-12-27T05:07:01.085Z,101459.00
2022-12-27T05:09:46.871Z,101450.00
2022-12-27T05:12:32.142Z,101465.00
2022-12-27T05:14:58.770Z,101463.00
2022-12-27T05:17:26.038Z,101469.00
2022-12-27T05:19:52.536Z,101471.00
2022-12-27T05:22:37.763Z,101477.00
2022-12-27T05:25:23.487Z,101472.00
2022-12-27T05:27:50.022Z,101465.00
2022-12-27T05:30:16.634Z,101474.00
2022-12-27T05:32:43.343Z,101476.00
2022-12-27T05:35:10.383Z,101485.00
2022-12-27T05:37:36.899Z,101476.00
2022-12-27T05:40:04.232Z,101483.00
2022-12-27T05:42:31.978Z,101484.00
2022-12-27T05:44:58.444Z,101490.00
2022-12-27T05:47:24.981Z,101492.00
2022-12-27T05:49:51.813Z,101490.00
2022-12-27T05:52:19.182Z,101492.00
2022-12-27T05:54:45.839Z,101489.00
2022-12-27T05:57:12.408Z,101498.00
2022-12-27T05:59:39.069Z,101485.00
2022-12-27T06:02:05.928Z,101495.00
2022-12-27T06:04:32.807Z,101496.00
2022-12-27T06:06:59.740Z,101503.00
2022-12-27T06:09:26.405Z,101494.00
2022-12-27T06:11:52.986Z,101503.00
2022-12-27T06:14:19.457Z,101501.00
2022-12-27T06:16:47.381Z,101500.00
2022-12-27T06:19:14.170Z,101502.00
2022-12-27T06:21:41.931Z,101507.00
2022-12-27T06:24:09.335Z,101513.00
2022-12-27T06:26:35.914Z,101514.00
2022-12-27T06:29:03.840Z,101508.00
2022-12-27T06:31:30.588Z,101525.00
2022-12-27T06:33:57.661Z,101529.00
2022-12-27T06:36:30.243Z,101528.00
2022-12-27T06:38:57.718Z,101521.00
2022-12-27T06:41:24.448Z,101519.00
2022-12-27T06:43:55.251Z,101529.00
2022-12-27T06:46:24.807Z,101533.00
2022-12-27T06:48:51.750Z,101527.00
2022-12-27T06:51:21.466Z,101535.00
2022-12-27T06:53:49.362Z,101523.00
2022-12-27T06:56:19.596Z,101530.00
2022-12-27T06:58:47.454Z,101529.00
2022-12-27T07:01:18.026Z,101538.00
2022-12-27T07:03:52.120Z,101537.00
2022-12-27T07:06:19.808Z,101540.00
2022-12-27T07:08:47.363Z,101542.00
2022-12-27T07:11:15.313Z,101548.00
2022-12-27T07:13:45.233Z,101554.00
2022-12-27T07:16:14.634Z,101550.00
2022-12-27T07:18:41.177Z,101560.00
2022-12-27T07:21:35.095Z,101571.00
2022-12-27T07:24:01.843Z,101559.00
2022-12-27T07:26:30.665Z,101566.00
2022-12-27T07:28:59.459Z,101560.00
2022-12-27T07:31:30.047Z,101568.00
2022-12-27T07:33:59.183Z,101571.00
2022-12-27T07:36:29.552Z,101587.00
2022-12-27T07:38:56.582Z,101595.00
2022-12-27T07:41:24.851Z,101586.00
2022-12-27T07:43:51.705Z,101594.00
2022-12-27T07:46:20.701Z,101597.00
2022-12-27T07:48:47.798Z,101592.00
2022-12-27T07:51:15.423Z,101597.00
2022-12-27T07:53:42.498Z,101603.00
2022-12-27T07:56:12.094Z,101612.00
2022-12-27T07:58:40.826Z,101619.00
2022-12-27T08:01:09.398Z,101612.00
2022-12-27T08:03:36.251Z,101609.00
2022-12-27T08:06:03.068Z,101604.00
2022-12-27T08:08:38.439Z,101613.00
2022-12-27T08:11:05.830Z,101609.00
2022-12-27T08:13:33.218Z,101604.00
2022-12-27T08:15:59.709Z,101623.00
2022-12-27T08:18:26.562Z,101621.00
2022-12-27T08:20:53.233Z,101630.00
2022-12-27T08:23:20.314Z,101624.00
2022-12-27T08:25:48.922Z,101624.00
2022-12-27T08:28:17.743Z,101627.00
2022-12-27T08:30:45.876Z,101630.00
2022-12-27T08:33:12.848Z,101631.00
2022-12-27T08:35:52.584Z,101634.00
2022-12-27T08:38:23.013Z,101627.00
2022-12-27T08:40:51.009Z,101639.00
2022-12-27T08:43:17.679Z,101642.00
2022-12-27T08:45:44.294Z,101641.00
2022-12-27T08:48:11.057Z,101640.00
2022-12-27T08:50:37.890Z,101641.00
2022-12-27T08:53:06.401Z,101636.00
2022-12-27T08:55:34.293Z,101631.00
2022-12-27T08:58:10.564Z,101639.00
2022-12-27T09:00:42.114Z,101634.00
2022-12-27T09:03:09.555Z,101646.00
2022-12-27T09:05:41.383Z,101654.00
2022-12-27T09:08:09.893Z,101652.00
2022-12-27T09:10:36.781Z,101647.00
2022-12-27T09:13:03.977Z,101636.00
2022-12-27T09:15:30.945Z,101650.00
2022-12-27T09:17:58.017Z,101640.00
2022-12-27T09:20:24.752Z,101632.00
2022-12-27T09:22:54.934Z,101637.00
2022-12-27T09:25:21.761Z,101646.00
2022-12-27T09:27:48.547Z,101636.00
2022-12-27T09:30:15.331Z,101640.00
2022-12-27T09:32:42.093Z,101642.00
2022-12-27T09:35:09.155Z,101654.00
2022-12-27T09:37:38.333Z,101654.00
2022-12-27T09:40:06.020Z,101663.00
2022-12-27T09:43:09.453Z,101667.00
2022-12-27T09:45:52.446Z,101674.00
2022-12-27T09:48:34.244Z,101658.00
2022-12-27T09:51:26.975Z,101665.00
2022-12-27T09:54:02.493Z,101664.00
2022-12-27T09:57:01.690Z,101658.00
2022-12-27T09:59:34.857Z,101667.00
2022-12-27T10:02:02.046Z,101667.00
2022-12-27T10:05:01.233Z,101666.00
2022-12-27T10:07:43.848Z,101672.00
2022-12-27T10:10:40.580Z,101673.00
2022-12-27T10:13:39.920Z,101664.00
2022-12-27T10:16:31.134Z,101659.00
2022-12-27T10:19:20.052Z,101663.00
2022-12-27T10:22:02.588Z,101657.00
2022-12-27T10:24:49.021Z,101668.00
2022-12-27T10:27:20.552Z,101670.00
2022-12-27T10:29:49.098Z,101676.00
2022-12-27T10:32:16.667Z,101675.00
2022-12-27T10:34:43.387Z,101679.00
2022-12-27T10:37:17.610Z,101684.00
2022-12-27T10:39:44.365Z,101692.00
2022-12-27T10:42:34.229Z,101702.00
2022-12-27T10:45:42.672Z,101701.00
2022-12-27T10:48:13.860Z,101702.00
2022-12-27T10:50:49.088Z,101705.00
2022-12-27T10:53:32.205Z,101707.00
2022-12-27T10:56:08.007Z,101703.00
2022-12-27T10:58:37.971Z,101721.00
2022-12-27T11:01:04.812Z,101705.00
2022-12-27T11:03:32.332Z,101717.00
2022-12-27T11:06:04.642Z,101709.00
2022-12-27T11:08:34.307Z,101712.00
2022-12-27T11:11:15.910Z,101720.00
2022-12-27T11:13:42.756Z,101718.00
2022-12-27T11:16:28.722Z,101719.00
2022-12-27T11:18:59.146Z,101713.00
2022-12-27T11:21:28.164Z,101728.00
2022-12-27T11:24:04.210Z,101724.00
2022-12-27T11:26:40.556Z,101719.00
2022-12-27T11:29:16.750Z,101728.00
2022-12-27T11:31:48.709Z,101728.00
2022-12-27T11:34:24.311Z,101733.00
2022-12-27T11:36:54.761Z,101739.00
2022-12-27T11:39:39.236Z,101736.00
2022-12-27T11:42:18.412Z,101732.00
2022-12-27T11:44:52.454Z,101750.00
2022-12-27T11:47:31.480Z,101742.00
2022-12-27T11:50:14.709Z,101744.00
2022-12-27T11:53:15.632Z,101747.00
2022-12-27T11:56:07.309Z,101745.00
2022-12-27T11:58:48.636Z,101749.00
2022-12-27T12:02:01.179Z,101742.00
2022-12-27T12:05:22.381Z,101742.00
2022-12-27T12:08:01.416Z,101749.00
2022-12-27T12:10:55.831Z,101755.00
2022-12-27T12:13:39.013Z,101758.00
2022-12-27T12:16:25.389Z,101753.00
2022-12-27T12:19:20.699Z,101761.00
2022-12-27T12:22:39.933Z,101760.00
2022-12-27T12:25:38.935Z,101758.00
2022-12-27T12:29:00.342Z,101748.00
2022-12-27T12:31:48.561Z,101749.00
2022-12-27T12:34:51.544Z,101758.00
2022-12-27T12:37:37.462Z,101768.00
2022-12-27T12:40:21.199Z,101758.00
2022-12-27T12:43:24.947Z,101770.00
2022-12-27T12:46:02.387Z,101750.00
2022-12-27T12:48:48.102Z,101767.00
2022-12-27T12:51:45.246Z,101772.00
2022-12-27T12:54:30.136Z,101772.00
2022-12-27T12:57:18.654Z,101771.00
2022-12-27T12:59:54.676Z,101778.00
2022-12-27T13:02:49.392Z,101789.00
2022-12-27T13:05:30.222Z,101789.00
2022-12-27T13:08:16.442Z,101780.00
2022-12-27T13:10:52.059Z,101782.00
2022-12-27T13:13:39.262Z,101798.00
2022-12-27T13:16:25.482Z,101785.00
2022-12-27T13:19:07.380Z,101791.00
2022-12-27T13:21:54.839Z,101790.00
2022-12-27T13:24:38.676Z,101790.00
2022-12-27T13:27:25.125Z,101793.00
2022-12-27T13:30:16.653Z,101780.00
2022-12-27T13:33:09.374Z,101788.00
2022-12-27T13:36:03.257Z,101789.00
2022-12-27T13:39:01.410Z,101793.00
2022-12-27T13:42:05.395Z,101784.00
2022-12-27T13:44:42.109Z,101792.00
2022-12-27T13:47:12.395Z,101789.00
2022-12-27T13:50:12.439Z,101789.00
2022-12-27T13:53:17.488Z,101787.00
2022-12-27T13:56:51.504Z,101795.00
2022-12-27T13:59:27.982Z,101797.00
2022-12-27T14:02:50.820Z,101799.00
2022-12-27T14:05:31.942Z,101815.00
2022-12-27T14:08:35.996Z,101809.00
2022-12-27T14:11:06.914Z,101819.00
2022-12-27T14:13:52.808Z,101812.00
2022-12-27T14:16:35.429Z,101817.00
2022-12-27T14:19:19.082Z,101823.00
2022-12-27T14:22:23.039Z,101827.00
2022-12-27T14:24:58.766Z,101829.00
2022-12-27T14:27:58.847Z,101831.00
2022-12-27T14:31:07.889Z,101834.00
2022-12-27T14:34:16.507Z,101832.00
2022-12-27T14:37:06.034Z,101841.00
2022-12-27T14:39:49.059Z,101839.00
2022-12-27T14:42:45.830Z,101840.00
2022-12-27T14:45:25.023Z,101847.00
2022-12-27T14:48:29.213Z,101847.00
2022-12-27T14:51:58.872Z,101846.00
2022-12-27T14:54:19.481Z,101843.00
2022-12-27T14:56:52.059Z,101850.00
2022-12-27T14:59:36.959Z,101852.00
2022-12-27T15:02:38.887Z,101849.00
2022-12-27T15:05:22.378Z,101857.00
2022-12-27T15:08:31.980Z,101861.00
2022-12-27T15:11:17.965Z,101876.00
2022-12-27T15:13:58.401Z,101883.00
2022-12-27T15:16:55.910Z,101885.00
2022-12-27T15:19:52.787Z,101882.00
2022-12-27T15:22:49.501Z,101874.00
2022-12-27T15:25:43.854Z,101887.00
2022-12-27T15:28:36.269Z,101872.00
2022-12-27T15:31:21.452Z,101877.00
2022-12-27T15:34:11.306Z,101865.00
2022-12-27T15:36:43.465Z,101862.00
2022-12-27T15:39:34.937Z,101850.00
2022-12-27T15:42:33.037Z,101860.00
2022-12-27T15:45:20.384Z,101872.00
2022-12-27T15:48:10.000Z,101859.00
2022-12-27T15:51:12.198Z,101859.00
2022-12-27T15:53:54.714Z,101857.00
2022-12-27T15:56:40.038Z,101861.00
2022-12-27T15:59:34.868Z,101863.00
2022-12-27T16:02:24.451Z,101859.00
2022-12-27T16:04:56.690Z,101857.00
2022-12-27T16:07:55.388Z,101859.00
2022-12-27T16:10:31.563Z,101860.00
2022-12-27T16:13:10.525Z,101855.00
2022-12-27T16:15:52.146Z,101856.00
2022-12-27T16:18:21.529Z,101851.00
2022-12-27T16:20:58.232Z,101848.00
2022-12-27T16:23:29.233Z,101845.00
2022-12-27T16:26:16.684Z,101854.00
2022-12-27T16:28:56.865Z,101864.00
2022-12-27T16:31:32.382Z,101869.00
2022-12-27T16:34:10.823Z,101864.00
2022-12-27T16:36:44.513Z,101874.00
2022-12-27T16:39:11.713Z,101873.00
2022-12-27T16:41:56.715Z,101871.00
2022-12-27T16:44:26.734Z,101873.00
2022-12-27T16:46:56.408Z,101857.00
2022-12-27T16:49:35.032Z,101856.00
2022-12-27T16:52:24.124Z,101874.00
2022-12-27T16:55:20.813Z,101872.00
2022-12-27T16:57:51.459Z,101858.00
2022-12-27T17:00:39.147Z,101877.00
2022-12-27T17:03:21.242Z,101857.00
2022-12-27T17:08:40.565Z,101877.00
2022-12-27T17:11:30.138Z,101876.00
2022-12-27T17:14:06.745Z,101865.00
2022-12-27T17:16:43.223Z,101852.00
2022-12-27T17:19:20.428Z,101855.00
2022-12-27T17:21:54.199Z,101852.00
2022-12-27T17:24:22.093Z,101862.00
2022-12-27T17:27:09.255Z,101870.00
2022-12-27T17:30:11.885Z,101873.00
2022-12-27T17:33:02.912Z,101869.00
2022-12-27T17:35:41.590Z,101879.00
2022-12-27T17:38:31.356Z,101880.00
2022-12-27T17:41:57.886Z,101882.00
2022-12-27T17:44:39.795Z,101875.00
2022-12-27T17:47:41.993Z,101886.00
2022-12-27T17:50:16.366Z,101871.00
2022-12-27T17:53:22.070Z,101873.00
2022-12-27T17:56:22.531Z,101870.00
2022-12-27T17:58:48.987Z,101864.00
2022-12-27T18:01:15.747Z,101863.00
2022-12-27T18:03:45.858Z,101871.00
2022-12-27T18:06:17.633Z,101869.00
2022-12-27T18:08:47.829Z,101862.00
2022-12-27T18:11:18.834Z,101872.00
2022-12-27T18:13:54.262Z,101870.00
2022-12-27T18:16:31.602Z,101869.00
2022-12-27T18:18:59.982Z,101870.00
2022-12-27T18:21:28.579Z,101864.00
2022-12-27T18:23:56.222Z,101872.00
2022-12-27T18:26:38.162Z,101860.00
2022-12-27T18:29:10.313Z,101860.00
2022-12-27T18:31:47.626Z,101863.00
2022-12-27T18:34:33.275Z,101858.00
2022-12-27T18:37:06.888Z,101859.00
2022-12-27T18:39:43.291Z,101856.00
2022-12-27T18:42:43.740Z,101854.00
2022-12-27T18:45:23.353Z,101855.00
2022-12-27T18:47:55.573Z,101844.00
2022-12-27T18:50:25.247Z,101838.00
2022-12-27T18:53:03.761Z,101851.00
2022-12-27T18:55:32.116Z,101846.00
2022-12-27T18:58:20.602Z,101848.00
2022-12-27T19:00:53.422Z,101844.00
2022-12-27T19:03:20.821Z,101848.00
2022-12-27T19:06:04.963Z,101856.00
2022-12-27T19:08:51.552Z,101844.00
2022-12-27T19:11:21.418Z,101849.00
2022-12-27T19:13:52.169Z,101839.00
2022-12-27T19:16:34.113Z,101842.00
2022-12-27T19:19:24.790Z,101838.00
2022-12-27T19:21:51.263Z,101837.00
2022-12-27T19:24:24.047Z,101847.00
2022-12-27T19:26:51.559Z,101829.00
2022-12-27T19:29:28.232Z,101842.00
2022-12-27T19:32:05.087Z,101835.00
2022-12-27T19:34:42.532Z,101840.00
2022-12-27T19:37:09.686Z,101844.00
2022-12-27T19:39:38.575Z,101841.00
2022-12-27T19:42:43.045Z,101834.00
2022-12-27T19:45:14.904Z,101832.00
2022-12-27T19:47:41.632Z,101838.00
2022-12-27T19:50:09.693Z,101839.00
2022-12-27T19:52:36.292Z,101834.00
2022-12-27T19:55:08.470Z,101840.00
2022-12-27T19:57:41.488Z,101837.00
2022-12-27T20:00:16.353Z,101844.00
2022-12-27T20:02:43.181Z,101847.00
2022-12-27T20:05:11.254Z,101832.00
2022-12-27T20:07:39.129Z,101819.00
2022-12-27T20:10:07.508Z,101823.00
2022-12-27T20:12:34.131Z,101828.00
2022-12-27T20:15:00.772Z,101823.00
2022-12-27T20:17:28.633Z,101831.00
2022-12-27T20:19:55.273Z,101830.00
2022-12-27T20:22:23.523Z,101828.00
2022-12-27T20:27:31.952Z,101817.00
2022-12-27T20:29:58.613Z,101823.00
2022-12-27T20:32:25.331Z,101810.00
2022-12-27T20:34:52.193Z,101808.00
2022-12-27T20:37:24.326Z,101809.00
2022-12-27T20:39:51.285Z,101804.00
2022-12-27T20:42:17.758Z,101803.00
2022-12-27T20:44:44.362Z,101813.00
2022-12-27T20:47:11.033Z,101809.00
2022-12-27T20:49:38.793Z,101806.00
2022-12-27T20:52:05.567Z,101800.00
2022-12-27T20:54:32.230Z,101808.00
2022-12-27T20:57:01.680Z,101802.00
2022-12-27T20:59:28.198Z,101795.00
2022-12-27T21:01:57.240Z,101801.00
2022-12-27T21:04:24.389Z,101798.00
2022-12-27T21:06:50.940Z,101795.00
2022-12-27T21:09:17.409Z,101786.00
2022-12-27T21:11:45.081Z,101785.00
2022-12-27T21:14:12.620Z,101777.00
2022-12-27T21:16:39.470Z,101779.00
2022-12-27T21:19:09.628Z,101766.00
2022-12-27T21:21:37.842Z,101765.00
2022-12-27T21:24:06.640Z,101761.00
2022-12-27T21:26:36.910Z,101767.00
2022-12-27T21:29:08.093Z,101763.00
2022-12-27T21:31:35.897Z,101756.00
2022-12-27T21:34:03.349Z,101751.00
2022-12-27T21:36:32.269Z,101762.00
2022-12-27T21:38:59.441Z,101759.00
2022-12-27T21:41:34.702Z,101759.00
2022-12-27T21:44:02.635Z,101763.00
2022-12-27T21:46:31.802Z,101770.00
2022-12-27T21:49:06.939Z,101759.00
2022-12-27T21:51:35.221Z,101759.00
2022-12-27T21:54:02.023Z,101759.00
2022-12-27T21:56:29.271Z,101754.00
2022-12-27T21:58:56.392Z,101742.00
2022-12-27T22:01:28.590Z,101746.00
2022-12-27T22:03:56.939Z,101744.00
2022-12-27T22:06:26.445Z,101743.00
2022-12-27T22:08:57.425Z,101742.00
2022-12-27T22:11:25.870Z,101733.00
2022-12-27T22:13:53.247Z,101732.00
2022-12-27T22:16:23.340Z,101726.00
2022-12-27T22:18:50.957Z,101729.00
2022-12-27T22:21:21.168Z,101721.00
2022-12-27T22:23:53.914Z,101714.00
2022-12-27T22:26:26.707Z,101713.00
2022-12-27T22:28:53.651Z,101706.00
2022-12-27T22:31:22.931Z,101704.00
2022-12-27T22:33:50.799Z,101713.00
2022-12-27T22:36:36.734Z,101701.00
2022-12-27T22:39:04.113Z,101701.00
2022-12-27T22:41:33.537Z,101713.00
2022-12-27T22:44:06.725Z,101698.00
2022-12-27T22:49:21.758Z,101692.00
2022-12-27T22:51:48.397Z,101689.00
2022-12-27T22:54:17.429Z,101697.00
2022-12-27T22:56:51.167Z,101701.00
2022-12-27T22:59:18.010Z,101691.00
2022-12-27T23:01:46.001Z,101682.00
2022-12-27T23:04:14.031Z,101683.00
2022-12-27T23:06:41.474Z,101674.00
2022-12-27T23:09:08.401Z,101665.00
2022-12-27T23:11:38.649Z,101682.00
2022-12-27T23:14:10.289Z,101678.00
2022-12-27T23:16:42.555Z,101675.00
2022-12-27T23:19:10.200Z,101673.00
2022-12-27T23:21:36.964Z,101672.00
2022-12-27T23:24:04.156Z,101663.00
2022-12-27T23:26:30.971Z,101663.00
2022-12-27T23:28:58.739Z,101672.00
2022-12-27T23:31:26.699Z,101660.00
2022-12-27T23:33:53.633Z,101664.00
2022-12-27T23:36:20.596Z,101641.00
2022-12-27T23:38:47.389Z,101639.00
2022-12-27T23:41:23.795Z,101642.00
2022-12-27T23:43:55.485Z,101641.00
2022-12-27T23:46:34.219Z,101628.00
2022-12-27T23:49:01.834Z,101633.00
2022-12-27T23:51:29.862Z,101623.00
2022-12-27T23:53:56.936Z,101630.00
2022-12-27T23:56:26.759Z,101609.00
2022-12-27T23:58:56.628Z,101622.00
